Aérodrome :
LOGIN :

S'inscrire | Disclaimer

   EN    FR    IT 

 










Légende :    VFR   VFR Marginal   IFR   IFR Intensif   IFR Très Intensif
Visi : 
Plafond : 
>= 8 km
>= 3000ft
5 à 8 km
1000 à 3000 ft
1500m à 5 km
500 à 1000 ft
800 à 1500m
200 à 500 ft
< 800m
< 200 ft
Symboles :   Orages  Brouillard  Fortes neiges  Fortes précipitations  Vent > 20 kt
SIGMETs :   Divers  Orages  Givrage  Turbulence  Onde Orograph.  Cendres Volcan.







- Altitude de l'aérodrome : 194 ft
- Code IATA : LME
- Voir les cartes d'approche


LFRM - Le Mans

DERNIER METAR :
  • 241330Z AUTO 36009KT 330V030 9999 SCT025 SCT030 OVC050 12/07 Q1028 NOSIG

METARs EXPIRÉS :
  • 241300Z AUTO 35009KT 320V020 9000 FEW022 BKN028 OVC049 12/07 Q1029 NOSIG
  • 241230Z AUTO 36008KT 9999 BKN024 OVC054 12/07 Q1029 NOSIG
  • 241200Z AUTO 36008KT 330V030 9999 SCT025 BKN031 OVC052 12/07 Q1029 NOSIG
  • 241130Z AUTO 36008KT 330V030 9999 BKN024 OVC052 12/06 Q1029 NOSIG
  • 241100Z AUTO 36007KT 330V030 9000 SCT025 BKN031 OVC052 12/06 Q1029 NOSIG

TAF TAF LFRM
Valide du 24 à 12h jusqu'au 25 à 12h UTC


241100Z 2412/2512 02008KT 9999 SCT025 BKN035
BECMG 2416/2418 CAVOK
PROB30
TEMPO 2504/2507 3000 BR BKN004
BECMG 2507/2509 FEW010 SCT020
Pas de NOTAMs connus pour ce terrain.



MET'MAP, la Météo Aéronautique d'un coup d'oeil ! - Copyright ORBIFLY Décembre 2007 - Disclaimer

ORBIFLY MET'MAP TEAM :

Programmation & Développement : Alexandra Zaïnal
Conception & Développement : Baudouin d'Aumeries
Co-Programmation & Développement : Marc-Olivier Méhu
Soutien technique & logistique : Manuel Goepfert

Contact : metmap@orbifly.com




SOURCES & CREDITS :

   NOAA